Impacts TAF Board
For situational awareness. Not to be used for flight planning purposes.
IDs:

KATL - Atlanta/Hartsfield-J, GA, US

Issued at 0730 UTC 18 Jan 2019
Updated at 0951 UTC 18 Jan 2019
Potential Impact None Slight Moderate High
Time<<18/22Z 18/23Z 19/00Z 19/01Z 19/02Z 19/03Z 19/04Z 19/05Z 19/06Z 19/07Z 19/08Z 19/09Z 19/10Z>>
Type PRVL PRVL PRVL PRVL PRVL PRVL PRVL PRVL PRVL PRVL PRVL
  [PRB30]  
PRVL
  [PRB30]  
PRVL
  [PRB30]  
VIS >6 >6 4 4 4 4 4 4 4 4 4
  [1]  
4
  [1]  
4
  [1]  
CIG 10 10 10 10 10 10 10 10 10 10 10
  [5]  
10
  [5]  
10
  [5]  
Cover BKN BKN OVC OVC OVC OVC OVC OVC OVC OVC OVC
  [OVC]  
OVC
  [OVC]  
OVC
  [OVC]  
FltCat MVFR MVFR MVFR MVFR MVFR MVFR MVFR MVFR MVFR MVFR MVFR
  [IFR]  
MVFR
  [IFR]  
MVFR
  [IFR]  
WX -- -- BR BR BR BR BR BR BR BR BR
  [-SHRA]  
BR
  [-SHRA]  
BR
  [-SHRA]  
WDir 200 200 150 150 150 150 150 150 150 150 150
[150]
150
[150]
150
[150]
WSpd 3 3 4 4 4 4 4 4 4 4 4
  [4]  
4
  [4]  
4
  [4]  
WGst -- -- -- -- -- -- -- -- -- -- --
  [--]  
--
  [--]  
--
  [--]  
Raw TAF
KATL 180730Z 1808/1912 22003KT 3/4SM -DZ BR OVC002
  FM181000 24003KT 1 1/2SM BR OVC003
  FM181400 26003KT 4SM BR OVC004
  FM181900 20003KT P6SM BKN010
  FM190000 15004KT 4SM BR OVC010
  PROB30 1908/1912 1SM -SHRA OVC005


METAR Board
Radar Display
Forecast Discussion
For situational awareness. Not to be used for flight planning purposes.